Time;durP1;ratioP1;P1;durP2;ratioP2;P2;SDS_P1;SDS_P2;PMS_P1;PMS_P2;Temp;Humidity;BMP_temperature;BMP_pressure;BME280_temperature;BME280_humidity;BME280_pressure;Samples;Min_cycle;Max_cycle;Signal;HPM_P1;HPM_P2
2023/12/16 00:00:15;;;;;;;3.92;1.10;;;12.50;62.80;14.30;103626.00;;;;5008724;28;20754;-75
2023/12/16 00:02:42;;;;;;;3.25;0.90;;;12.50;62.80;14.30;103625.00;;;;5007949;28;20268;-75
2023/12/16 00:05:10;;;;;;;4.45;1.48;;;12.50;62.90;14.30;103627.00;;;;5008689;28;20240;-75
2023/12/16 00:07:37;;;;;;;3.22;1.50;;;12.50;62.90;14.30;103630.00;;;;5008322;28;20205;-75
2023/12/16 00:10:06;;;;;;;8.90;1.85;;;12.50;62.90;14.30;103624.00;;;;5009265;28;20197;-75
2023/12/16 00:12:34;;;;;;;4.32;1.50;;;12.50;62.90;14.30;103619.00;;;;5008963;28;20196;-75
2023/12/16 00:15:01;;;;;;;7.07;1.35;;;12.50;63.00;14.30;103615.00;;;;5008839;28;20209;-75
2023/12/16 00:17:28;;;;;;;3.75;1.38;;;12.50;63.00;14.30;103609.00;;;;5009018;28;20578;-75
2023/12/16 00:19:55;;;;;;;6.28;1.35;;;12.50;63.00;14.30;103616.00;;;;5008485;28;21119;-75
2023/12/16 00:22:22;;;;;;;6.68;1.40;;;12.50;63.00;14.30;103619.00;;;;5002216;28;20574;-75
2023/12/16 00:24:49;;;;;;;4.25;1.10;;;12.50;62.90;14.30;103615.00;;;;5006574;28;20197;-75
2023/12/16 00:27:16;;;;;;;5.53;1.33;;;12.50;62.90;14.30;103616.00;;;;5008806;28;20565;-75
2023/12/16 00:29:44;;;;;;;3.95;0.80;;;12.50;62.90;14.30;103616.00;;;;5008840;28;20204;-75
2023/12/16 00:32:12;;;;;;;3.75;1.10;;;12.50;63.60;14.30;103620.00;;;;5008985;28;20203;-75
2023/12/16 00:34:38;;;;;;;1.48;0.85;;;12.50;62.80;14.30;103620.00;;;;5008941;28;20193;-75
2023/12/16 00:37:06;;;;;;;5.80;1.75;;;12.50;62.90;14.30;103622.00;;;;5007491;28;20694;-75
2023/12/16 00:39:33;;;;;;;5.43;1.92;;;12.50;62.90;14.20;103619.00;;;;5008225;28;20212;-75
2023/12/16 00:42:00;;;;;;;5.05;1.58;;;12.50;62.90;14.30;103616.00;;;;5007685;28;20204;-75
2023/12/16 00:44:27;;;;;;;4.57;1.55;;;12.50;62.90;14.30;103617.00;;;;5009407;28;20196;-75
2023/12/16 00:46:55;;;;;;;5.30;1.20;;;12.40;62.80;14.20;103611.00;;;;5008212;28;20251;-75
2023/12/16 00:49:23;;;;;;;5.60;1.67;;;12.40;62.80;14.20;103613.00;;;;5007618;28;20199;-75
2023/12/16 00:51:50;;;;;;;4.00;1.20;;;12.50;62.90;14.20;103628.00;;;;5007523;28;20212;-75
2023/12/16 00:54:17;;;;;;;6.43;1.50;;;12.40;62.80;14.20;103620.00;;;;5005600;28;20219;-75
2023/12/16 00:56:44;;;;;;;6.10;1.50;;;12.40;62.80;14.20;103618.00;;;;5005738;28;20288;-75
2023/12/16 00:59:11;;;;;;;7.10;1.98;;;12.40;62.80;14.20;103618.00;;;;5006399;28;20686;-75
2023/12/16 01:01:38;;;;;;;5.43;1.23;;;12.40;62.90;14.20;103616.00;;;;5007497;28;20196;-75
2023/12/16 01:04:06;;;;;;;5.65;1.63;;;12.40;62.80;14.20;103613.00;;;;5012400;28;20243;-75
2023/12/16 01:06:33;;;;;;;6.10;1.65;;;12.40;62.80;14.20;103598.00;;;;5011925;28;20219;-75
2023/12/16 01:09:00;;;;;;;8.57;1.63;;;12.40;62.90;14.20;103601.00;;;;5011579;28;20590;-75
2023/12/16 01:11:27;;;;;;;10.13;1.80;;;12.40;62.80;14.10;103592.00;;;;5007423;28;20221;-75
2023/12/16 01:13:54;;;;;;;6.65;1.67;;;12.40;62.80;14.10;103591.00;;;;4992330;28;20561;-75
2023/12/16 01:16:21;;;;;;;5.13;1.58;;;12.40;62.80;14.10;103591.00;;;;4992791;28;20221;-75
2023/12/16 01:18:48;;;;;;;5.18;0.88;;;12.30;62.70;14.10;103598.00;;;;5010357;28;20197;-75
2023/12/16 01:21:17;;;;;;;7.93;1.75;;;12.30;62.60;14.00;103595.00;;;;5011660;28;20228;-75
2023/12/16 01:23:44;;;;;;;3.75;1.27;;;12.30;62.60;13.90;103600.00;;;;5010701;28;20204;-75
2023/12/16 01:26:11;;;;;;;4.32;1.50;;;12.20;62.50;13.90;103602.00;;;;5010460;28;20629;-75
2023/12/16 01:28:39;;;;;;;6.38;1.50;;;12.20;62.40;13.80;103596.00;;;;5005664;28;20220;-75
2023/12/16 01:31:06;;;;;;;6.18;1.45;;;12.20;62.40;13.80;103599.00;;;;4999827;28;21039;-75
2023/12/16 01:33:33;;;;;;;6.05;1.42;;;12.10;62.50;13.70;103599.00;;;;5019502;28;20662;-75
2023/12/16 01:36:00;;;;;;;2.95;1.10;;;12.00;62.50;13.70;103592.00;;;;5012198;28;20916;-75
2023/12/16 01:38:29;;;;;;;4.53;1.30;;;12.00;62.50;13.60;103593.00;;;;5012256;28;20216;-75
2023/12/16 01:40:56;;;;;;;5.50;1.20;;;12.00;62.50;13.60;103589.00;;;;5010819;28;21114;-75
2023/12/16 01:43:23;;;;;;;5.13;1.40;;;11.90;62.60;13.60;103593.00;;;;5016855;28;20208;-76
2023/12/16 01:46:00;;;;;;;5.70;1.40;;;11.80;62.50;13.40;103598.00;;;;5017483;28;20264;-76
2023/12/16 01:48:27;;;;;;;4.47;1.40;;;11.80;62.60;13.50;103609.00;;;;5005090;28;20192;-75
2023/12/16 01:50:54;;;;;;;8.25;1.42;;;11.70;62.70;13.40;103605.00;;;;5011313;28;20210;-75
2023/12/16 01:53:22;;;;;;;4.45;1.90;;;11.70;62.70;13.30;103600.00;;;;5011724;28;20208;-75
2023/12/16 01:55:50;;;;;;;4.10;1.30;;;11.70;62.80;13.30;103595.00;;;;5030468;28;20200;-75
2023/12/16 01:58:17;;;;;;;6.47;1.45;;;11.60;62.80;13.30;103596.00;;;;5016182;28;20209;-75
2023/12/16 02:00:47;;;;;;;4.07;1.23;;;11.50;62.80;13.20;103605.00;;;;5011152;28;20224;-75
2023/12/16 02:03:16;;;;;;;4.60;1.70;;;11.50;62.90;13.20;103620.00;;;;5005768;28;20248;-75
2023/12/16 02:05:43;;;;;;;5.38;1.52;;;11.50;62.90;13.20;103613.00;;;;5009311;28;20368;-75
2023/12/16 02:08:10;;;;;;;4.47;1.80;;;11.40;62.80;13.10;103620.00;;;;5007941;28;20567;-75
2023/12/16 02:10:37;;;;;;;5.32;1.25;;;11.40;62.90;13.10;103622.00;;;;5010496;28;20204;-75
2023/12/16 02:13:06;;;;;;;8.68;1.77;;;11.40;63.00;13.00;103617.00;;;;5009231;28;20675;-76
2023/12/16 02:15:34;;;;;;;8.60;1.80;;;11.30;63.00;13.00;103615.00;;;;5009335;28;20230;-76
2023/12/16 02:18:01;;;;;;;4.20;1.27;;;11.30;63.20;13.00;103619.00;;;;5010618;28;20211;-76
2023/12/16 02:20:27;;;;;;;2.97;1.40;;;11.20;63.30;13.00;103614.00;;;;4998666;28;20225;-76
2023/12/16 02:22:55;;;;;;;6.18;1.35;;;11.20;63.40;12.90;103612.00;;;;5006964;28;20694;-76
2023/12/16 02:25:23;;;;;;;6.22;1.58;;;11.20;63.30;12.90;103614.00;;;;5008984;28;20232;-74
2023/12/16 02:27:50;;;;;;;3.92;1.38;;;11.20;63.50;12.90;103612.00;;;;5014170;28;20192;-75
2023/12/16 02:30:20;;;;;;;3.38;1.45;;;11.10;63.50;12.90;103602.00;;;;5016381;28;20210;-75
2023/12/16 02:32:47;;;;;;;3.60;1.45;;;11.10;63.50;12.80;103608.00;;;;5008094;28;20287;-75
2023/12/16 02:35:14;;;;;;;4.68;1.40;;;11.10;63.60;12.80;103598.00;;;;5010496;28;20197;-75
2023/12/16 02:37:41;;;;;;;7.40;1.70;;;11.00;63.50;12.80;103607.00;;;;5002833;28;20211;-75
2023/12/16 02:40:10;;;;;;;3.05;1.17;;;11.00;63.50;12.70;103601.00;;;;5010467;28;20228;-75
2023/12/16 02:42:38;;;;;;;5.15;1.13;;;11.00;63.60;12.70;103595.00;;;;5010410;28;20193;-75
2023/12/16 02:45:06;;;;;;;7.55;1.60;;;10.90;63.70;12.70;103599.00;;;;5010322;28;20200;-75
2023/12/16 02:47:33;;;;;;;6.40;1.70;;;10.90;63.80;12.70;103600.00;;;;5008811;28;20208;-75
2023/12/16 02:50:00;;;;;;;7.07;1.60;;;10.80;63.80;12.70;103598.00;;;;5009425;28;20193;-75
2023/12/16 02:52:27;;;;;;;5.15;1.77;;;10.90;63.90;12.60;103604.00;;;;5009731;28;20255;-75
2023/12/16 02:54:54;;;;;;;8.52;2.00;;;10.80;63.90;12.60;103605.00;;;;5004306;28;20201;-75
2023/12/16 02:57:21;;;;;;;6.40;1.85;;;10.80;64.00;12.60;103598.00;;;;5008809;28;20582;-75
2023/12/16 02:59:49;;;;;;;3.13;1.23;;;10.70;63.90;12.60;103594.00;;;;5008662;28;20671;-75
2023/12/16 03:02:16;;;;;;;7.53;2.22;;;10.70;63.90;12.60;103598.00;;;;5009184;28;20208;-76
2023/12/16 03:04:43;;;;;;;6.40;1.65;;;10.70;64.00;12.60;103591.00;;;;5008293;28;20360;-75
2023/12/16 03:07:10;;;;;;;3.90;1.70;;;10.70;64.00;12.50;103589.00;;;;5008578;28;20200;-75
2023/12/16 03:09:37;;;;;;;5.60;1.80;;;10.70;64.10;12.50;103585.00;;;;5009735;28;20196;-75
2023/12/16 03:12:06;;;;;;;6.00;2.05;;;10.70;64.20;12.50;103590.00;;;;5000651;28;20220;-75
2023/12/16 03:14:34;;;;;;;4.90;1.83;;;10.70;64.20;12.50;103589.00;;;;5010189;28;20208;-76
2023/12/16 03:17:02;;;;;;;5.30;1.70;;;10.60;64.30;12.50;103582.00;;;;5009221;28;20215;-75
2023/12/16 03:19:30;;;;;;;6.30;2.30;;;10.60;64.30;12.50;103588.00;;;;5010089;28;20204;-75
2023/12/16 03:21:57;;;;;;;4.03;2.25;;;10.60;64.30;12.50;103585.00;;;;5008297;28;20256;-75
2023/12/16 03:24:24;;;;;;;7.32;2.30;;;10.60;64.40;12.50;103581.00;;;;5008640;28;20201;-76
2023/12/16 03:26:51;;;;;;;5.28;2.13;;;10.60;64.40;12.40;103588.00;;;;5006014;28;20212;-75
2023/12/16 03:29:18;;;;;;;5.53;1.90;;;10.60;64.40;12.40;103592.00;;;;4995923;28;20208;-75
2023/12/16 03:31:45;;;;;;;4.55;2.55;;;10.60;64.50;12.40;103587.00;;;;5008884;28;20686;-75
2023/12/16 03:34:14;;;;;;;6.07;2.50;;;10.60;64.50;12.40;103577.00;;;;5009473;28;20215;-75
2023/12/16 03:36:40;;;;;;;3.35;2.22;;;10.60;64.50;12.40;103581.00;;;;5009729;28;20205;-75
2023/12/16 03:39:08;;;;;;;6.03;2.58;;;10.60;64.50;12.40;103583.00;;;;5009015;28;20659;-75
2023/12/16 03:41:35;;;;;;;8.00;2.53;;;10.60;64.60;12.40;103570.00;;;;5009044;28;20690;-75
2023/12/16 03:44:02;;;;;;;4.65;2.17;;;10.60;64.60;12.40;103575.00;;;;5016456;28;20726;-75
2023/12/16 03:46:29;;;;;;;7.63;2.75;;;10.60;64.60;12.40;103569.00;;;;4989858;28;20194;-75
2023/12/16 03:48:56;;;;;;;5.70;2.22;;;10.60;64.60;12.40;103571.00;;;;5008670;28;21125;-75
2023/12/16 03:51:24;;;;;;;8.38;2.65;;;10.60;64.60;12.40;103570.00;;;;5009470;28;20227;-76
2023/12/16 03:53:51;;;;;;;6.28;2.47;;;10.60;64.60;12.40;103572.00;;;;5008675;28;20671;-76
2023/12/16 03:56:18;;;;;;;5.75;2.15;;;10.60;64.60;12.40;103575.00;;;;5008736;28;20229;-76
2023/12/16 03:58:45;;;;;;;6.05;2.72;;;10.60;64.60;12.40;103576.00;;;;5008761;28;20204;-76
2023/12/16 04:01:13;;;;;;;8.68;2.78;;;10.60;64.60;12.40;103574.00;;;;5007202;28;20717;-75
2023/12/16 04:03:40;;;;;;;6.13;2.20;;;10.60;64.70;12.40;103573.00;;;;4989248;28;20194;-75
2023/12/16 04:06:12;;;;;;;5.90;2.55;;;10.70;64.70;12.40;103571.00;;;;4989201;28;20504;-75
2023/12/16 04:08:41;;;;;;;6.97;2.67;;;10.60;64.80;12.40;103563.00;;;;5008392;28;20702;-76
2023/12/16 04:11:09;;;;;;;6.10;2.33;;;10.60;64.80;12.40;103579.00;;;;5010149;28;20201;-74
2023/12/16 04:13:36;;;;;;;5.97;2.45;;;10.60;64.80;12.40;103577.00;;;;5008458;28;20208;-74
2023/12/16 04:16:04;;;;;;;7.97;3.05;;;10.70;64.90;12.40;103577.00;;;;5009066;28;20212;-74
2023/12/16 04:18:32;;;;;;;8.27;2.95;;;10.70;64.90;12.40;103574.00;;;;5003929;28;20807;-74
2023/12/16 04:20:59;;;;;;;4.85;2.13;;;10.70;64.90;12.40;103572.00;;;;4989115;28;20638;-74
2023/12/16 04:23:26;;;;;;;6.28;2.90;;;10.70;64.90;12.40;103568.00;;;;5009518;28;20196;-74
2023/12/16 04:25:54;;;;;;;10.73;2.85;;;10.70;64.80;12.40;103566.00;;;;5009121;28;20678;-74
2023/12/16 04:28:21;;;;;;;9.30;3.03;;;10.70;64.80;12.40;103574.00;;;;5007803;28;20233;-74
2023/12/16 04:30:48;;;;;;;10.50;3.45;;;10.70;64.80;12.30;103576.00;;;;5006168;28;20199;-74
2023/12/16 04:33:15;;;;;;;5.72;2.38;;;10.70;64.80;12.30;103573.00;;;;5007502;28;20582;-74
2023/12/16 04:35:42;;;;;;;7.50;3.50;;;10.60;64.80;12.30;103571.00;;;;5001812;28;20213;-74
2023/12/16 04:38:10;;;;;;;8.20;2.67;;;10.60;64.80;12.30;103576.00;;;;5001668;28;20201;-75
2023/12/16 04:40:37;;;;;;;7.63;2.63;;;10.60;64.80;12.30;103579.00;;;;5012820;28;20204;-74
2023/12/16 04:43:05;;;;;;;7.47;2.75;;;10.60;64.70;12.30;103585.00;;;;5012731;28;20205;-74
2023/12/16 04:45:32;;;;;;;5.68;3.08;;;10.60;64.70;12.30;103587.00;;;;5013344;28;20211;-74
2023/12/16 04:47:59;;;;;;;6.95;2.80;;;10.60;64.70;12.30;103589.00;;;;5012374;28;20578;-74
2023/12/16 04:50:26;;;;;;;6.65;2.65;;;10.50;64.70;12.30;103593.00;;;;5011830;28;20196;-74
2023/12/16 04:52:53;;;;;;;5.97;2.75;;;10.60;64.70;12.30;103602.00;;;;5008660;28;20750;-74
2023/12/16 04:55:20;;;;;;;7.50;3.10;;;10.50;64.70;12.30;103600.00;;;;5011338;28;20208;-75
2023/12/16 04:57:47;;;;;;;4.75;2.60;;;10.50;64.70;12.20;103598.00;;;;5011675;28;20702;-74
2023/12/16 05:00:16;;;;;;;8.20;3.10;;;10.50;64.70;12.20;103589.00;;;;5003668;28;20205;-74
2023/12/16 05:02:43;;;;;;;9.95;2.90;;;10.50;64.80;12.20;103590.00;;;;5007031;28;20277;-74
2023/12/16 05:05:10;;;;;;;6.63;2.70;;;10.50;64.80;12.20;103591.00;;;;5009975;28;20248;-74
2023/12/16 05:07:40;;;;;;;7.13;2.50;;;10.40;64.70;12.20;103584.00;;;;5010915;28;20578;-74
2023/12/16 05:10:10;;;;;;;7.45;2.90;;;10.40;64.70;12.10;103579.00;;;;5005897;28;20212;-74
2023/12/16 05:12:40;;;;;;;7.05;2.65;;;10.40;64.70;12.10;103570.00;;;;5011249;28;20624;-74
2023/12/16 05:15:07;;;;;;;7.80;2.45;;;10.30;64.70;12.10;103569.00;;;;5010853;28;20197;-74
2023/12/16 05:17:36;;;;;;;6.28;3.42;;;10.30;64.80;12.00;103570.00;;;;5012922;28;20208;-74
2023/12/16 05:20:03;;;;;;;7.82;3.20;;;10.30;64.80;12.00;103571.00;;;;5013578;28;20556;-74
2023/12/16 05:22:33;;;;;;;5.65;2.60;;;10.30;64.90;12.00;103573.00;;;;5012071;28;20232;-74
2023/12/16 05:25:01;;;;;;;9.30;3.60;;;10.20;64.90;12.00;103565.00;;;;5005846;28;20323;-74
2023/12/16 05:27:28;;;;;;;5.90;3.17;;;10.20;65.00;12.00;103554.00;;;;5003179;28;20702;-74
2023/12/16 05:29:56;;;;;;;8.45;3.35;;;10.20;65.00;11.90;103553.00;;;;5010835;28;20232;-74
2023/12/16 05:32:23;;;;;;;7.63;3.33;;;10.20;65.10;11.90;103558.00;;;;5012834;28;20216;-74
2023/12/16 05:34:52;;;;;;;8.10;3.30;;;10.20;65.10;11.90;103561.00;;;;5030306;28;20211;-74
2023/12/16 05:37:19;;;;;;;6.05;3.65;;;10.10;65.10;11.90;103568.00;;;;5029216;28;20207;-74
2023/12/16 05:39:47;;;;;;;7.88;3.58;;;10.10;65.20;11.90;103575.00;;;;5009677;28;20681;-74
2023/12/16 05:42:14;;;;;;;8.05;3.38;;;10.10;65.30;11.90;103566.00;;;;5011127;28;20252;-74
2023/12/16 05:44:41;;;;;;;8.27;3.28;;;10.10;65.30;11.90;103574.00;;;;4996570;28;20198;-74
2023/12/16 05:47:09;;;;;;;9.93;3.15;;;10.10;65.40;11.90;103582.00;;;;5007005;28;20204;-74
2023/12/16 05:49:36;;;;;;;8.38;3.13;;;10.10;65.40;11.80;103577.00;;;;5010556;28;20420;-75
2023/12/16 05:52:05;;;;;;;9.25;4.07;;;10.10;65.50;11.80;103581.00;;;;5016602;28;20204;-74
2023/12/16 05:54:32;;;;;;;8.52;3.83;;;10.10;65.50;11.80;103584.00;;;;5015884;28;20682;-74
2023/12/16 05:56:59;;;;;;;4.82;2.70;;;10.00;65.50;11.80;103575.00;;;;5010925;28;20231;-74
2023/12/16 05:59:27;;;;;;;8.73;3.45;;;10.00;65.40;11.80;103566.00;;;;5011593;28;20205;-74
2023/12/16 06:01:54;;;;;;;6.75;2.88;;;10.10;65.50;11.80;103573.00;;;;5010444;28;20248;-75
2023/12/16 06:04:20;;;;;;;5.63;3.00;;;10.00;65.50;11.80;103559.00;;;;5010519;28;20271;-75
2023/12/16 06:06:47;;;;;;;10.18;3.40;;;10.00;65.50;11.80;103564.00;;;;5010773;28;20201;-75
2023/12/16 06:09:17;;;;;;;7.00;3.45;;;10.00;65.60;11.70;103571.00;;;;5011722;28;20205;-74
2023/12/16 06:11:44;;;;;;;7.72;3.50;;;10.00;65.60;11.80;103582.00;;;;5011236;28;20224;-75
2023/12/16 06:14:11;;;;;;;7.22;3.08;;;10.00;65.60;11.70;103576.00;;;;5010199;28;20204;-75
2023/12/16 06:16:38;;;;;;;7.78;3.38;;;10.00;65.70;11.70;103572.00;;;;5010069;28;20196;-75
2023/12/16 06:19:05;;;;;;;9.85;3.50;;;10.00;65.80;11.70;103572.00;;;;5004630;28;20209;-74
2023/12/16 06:21:32;;;;;;;7.35;3.53;;;9.90;65.60;11.70;103577.00;;;;5010391;28;20217;-75
2023/12/16 06:24:00;;;;;;;9.07;3.38;;;9.90;65.70;11.70;103583.00;;;;5011176;28;20197;-74
2023/12/16 06:26:28;;;;;;;9.23;3.47;;;9.90;65.70;11.70;103581.00;;;;5007991;28;20204;-74
2023/12/16 06:28:55;;;;;;;11.40;3.65;;;9.90;65.80;11.70;103580.00;;;;5009561;28;20193;-75
2023/12/16 06:31:22;;;;;;;8.45;3.22;;;9.90;66.50;11.70;103580.00;;;;5011259;28;20204;-75
2023/12/16 06:33:49;;;;;;;9.35;3.92;;;9.90;65.90;11.70;103588.00;;;;5010097;28;20197;-74
2023/12/16 06:36:16;;;;;;;4.97;2.85;;;9.90;65.80;11.70;103582.00;;;;5002564;28;20224;-74
2023/12/16 06:38:43;;;;;;;8.90;3.15;;;9.90;65.90;11.70;103589.00;;;;5010860;28;20216;-74
2023/12/16 06:41:10;;;;;;;7.28;2.90;;;9.90;66.00;11.70;103592.00;;;;5017213;28;20310;-75
2023/12/16 06:43:38;;;;;;;6.72;3.10;;;9.90;66.00;11.70;103589.00;;;;5010044;28;20208;-75
2023/12/16 06:46:07;;;;;;;6.65;3.38;;;9.90;66.00;11.60;103590.00;;;;4997004;28;20196;-74
2023/12/16 06:48:35;;;;;;;8.65;3.33;;;9.90;66.00;11.70;103593.00;;;;5001205;28;20209;-74
2023/12/16 06:51:03;;;;;;;6.18;3.10;;;9.80;66.00;11.70;103597.00;;;;5008342;28;20204;-74
2023/12/16 06:53:30;;;;;;;6.20;2.92;;;9.80;66.00;11.70;103590.00;;;;4992773;28;20229;-74
2023/12/16 06:55:57;;;;;;;12.50;3.97;;;9.80;66.00;11.60;103592.00;;;;5009152;28;20193;-74
2023/12/16 06:58:24;;;;;;;5.88;2.80;;;9.80;66.10;11.70;103593.00;;;;5009676;28;20204;-75
2023/12/16 07:00:52;;;;;;;6.45;2.83;;;9.80;66.20;11.60;103591.00;;;;5009326;28;20687;-74
2023/12/16 07:03:19;;;;;;;7.45;3.13;;;9.80;66.20;11.60;103595.00;;;;5009326;28;20236;-74
2023/12/16 07:05:46;;;;;;;7.57;2.92;;;9.80;66.20;11.60;103586.00;;;;5006058;28;20263;-75
2023/12/16 07:08:14;;;;;;;14.48;3.40;;;9.80;66.20;11.60;103587.00;;;;5003330;28;20559;-74
2023/12/16 07:10:41;;;;;;;7.07;2.95;;;9.80;66.20;11.60;103592.00;;;;5004248;28;20201;-75
2023/12/16 07:13:08;;;;;;;5.63;3.08;;;9.80;66.30;11.60;103581.00;;;;5009137;28;20208;-75
2023/12/16 07:15:35;;;;;;;6.85;2.47;;;9.80;66.30;11.60;103579.00;;;;5010278;28;20580;-75
2023/12/16 07:18:04;;;;;;;9.60;3.08;;;9.80;66.30;11.60;103590.00;;;;5006106;28;20196;-75
2023/12/16 07:20:31;;;;;;;6.47;2.35;;;9.80;66.30;11.60;103586.00;;;;5016759;28;20197;-74
2023/12/16 07:22:58;;;;;;;9.45;3.00;;;9.80;66.40;11.60;103589.00;;;;5003159;28;20232;-75
2023/12/16 07:25:25;;;;;;;7.40;3.03;;;9.80;66.40;11.60;103591.00;;;;5006132;28;20693;-74
2023/12/16 07:27:52;;;;;;;8.60;2.65;;;9.80;66.40;11.60;103596.00;;;;5009145;28;20681;-75
2023/12/16 07:30:19;;;;;;;4.65;2.72;;;9.80;66.50;11.60;103598.00;;;;5009182;28;20205;-74
2023/12/16 07:32:45;;;;;;;8.23;3.05;;;9.80;66.50;11.60;103602.00;;;;5010002;28;20209;-74
2023/12/16 07:35:15;;;;;;;7.78;2.75;;;9.80;66.50;11.60;103597.00;;;;5010482;28;20674;-74
2023/12/16 07:37:42;;;;;;;7.35;2.75;;;9.80;66.60;11.60;103597.00;;;;5008627;28;20201;-74
2023/12/16 07:40:11;;;;;;;6.03;2.80;;;9.80;66.60;11.60;103608.00;;;;5008993;28;20209;-74
2023/12/16 07:42:39;;;;;;;10.70;3.30;;;9.80;66.60;11.70;103601.00;;;;5005030;28;20232;-74
2023/12/16 07:45:08;;;;;;;6.60;3.10;;;9.80;66.60;11.70;103602.00;;;;5008927;28;20197;-74
2023/12/16 07:47:35;;;;;;;9.90;3.03;;;9.80;66.60;11.70;103600.00;;;;5008462;28;20212;-74
2023/12/16 07:50:03;;;;;;;7.90;2.92;;;9.90;66.70;11.70;103603.00;;;;5008437;28;20207;-74
2023/12/16 07:52:31;;;;;;;6.93;3.45;;;9.90;66.70;11.70;103592.00;;;;5008417;28;20201;-74
2023/12/16 07:54:59;;;;;;;6.63;3.08;;;9.90;66.70;11.70;103586.00;;;;5007396;28;21040;-75
2023/12/16 07:57:26;;;;;;;7.88;2.92;;;9.90;66.80;11.70;103589.00;;;;5006546;28;20221;-74
2023/12/16 07:59:52;;;;;;;8.40;3.42;;;9.90;66.80;11.70;103592.00;;;;5002697;28;20212;-74
2023/12/16 08:02:21;;;;;;;8.45;3.33;;;10.00;66.80;11.70;103598.00;;;;5007980;28;20315;-75
2023/12/16 08:04:48;;;;;;;6.80;2.97;;;10.00;66.80;11.80;103600.00;;;;5001443;28;20569;-74
2023/12/16 08:07:15;;;;;;;7.63;2.58;;;10.00;66.80;11.80;103607.00;;;;5015534;28;20717;-74
2023/12/16 08:09:43;;;;;;;10.90;3.53;;;10.00;66.90;11.80;103602.00;;;;5009697;28;20207;-73
2023/12/16 08:12:10;;;;;;;8.85;3.55;;;10.00;66.90;11.80;103612.00;;;;5008561;28;20242;-73
2023/12/16 08:14:36;;;;;;;7.15;3.00;;;10.00;66.90;11.90;103604.00;;;;5007334;28;20590;-74
2023/12/16 08:17:04;;;;;;;6.38;3.00;;;10.10;67.00;11.90;103602.00;;;;5008027;28;20197;-74
2023/12/16 08:19:37;;;;;;;14.55;3.83;;;10.10;67.10;11.90;103599.00;;;;5008914;28;20472;-74
2023/12/16 08:22:04;;;;;;;7.43;3.33;;;10.10;67.10;12.00;103604.00;;;;5005938;28;20224;-75
2023/12/16 08:24:32;;;;;;;8.10;3.15;;;10.10;67.10;12.00;103604.00;;;;5010642;28;20287;-74
2023/12/16 08:27:00;;;;;;;6.38;2.70;;;10.20;67.20;12.00;103611.00;;;;5009838;28;20610;-74
2023/12/16 08:29:27;;;;;;;10.15;2.75;;;10.20;67.30;12.10;103616.00;;;;5008398;28;20201;-75
2023/12/16 08:31:54;;;;;;;7.20;3.13;;;10.30;67.40;12.20;103618.00;;;;5009444;28;20207;-74
2023/12/16 08:34:22;;;;;;;9.82;4.55;;;10.30;67.50;12.20;103622.00;;;;5005438;28;20201;-74
2023/12/16 08:36:49;;;;;;;8.55;3.53;;;10.40;67.50;12.30;103624.00;;;;5006689;28;20344;-74
2023/12/16 08:39:16;;;;;;;6.90;3.22;;;10.50;67.60;12.40;103631.00;;;;5008596;28;20279;-74
2023/12/16 08:41:43;;;;;;;6.90;2.90;;;10.50;67.60;12.40;103635.00;;;;5007298;28;20192;-74
2023/12/16 08:44:13;;;;;;;9.43;2.90;;;10.50;67.70;12.50;103639.00;;;;5005148;28;20220;-74
2023/12/16 08:46:43;;;;;;;10.57;3.28;;;10.60;67.80;12.50;103639.00;;;;5007755;28;20207;-73
2023/12/16 08:49:10;;;;;;;8.68;3.15;;;10.70;67.90;12.60;103648.00;;;;5008809;28;20205;-74
2023/12/16 08:51:36;;;;;;;10.05;3.65;;;10.80;67.90;12.70;103649.00;;;;5006882;28;20714;-73
2023/12/16 08:54:04;;;;;;;8.48;3.33;;;10.80;67.80;12.80;103654.00;;;;5007540;28;20207;-73
2023/12/16 08:56:31;;;;;;;10.30;3.58;;;10.90;67.80;12.80;103649.00;;;;5008526;28;20702;-72
2023/12/16 08:58:58;;;;;;;5.47;2.90;;;11.00;67.80;12.90;103643.00;;;;5008668;28;20203;-73
2023/12/16 09:01:26;;;;;;;8.77;2.70;;;11.00;67.80;12.90;103654.00;;;;5006608;28;20578;-73
2023/12/16 09:03:53;;;;;;;9.55;3.78;;;11.10;67.80;13.00;103656.00;;;;5008056;28;20236;-73
2023/12/16 09:06:21;;;;;;;7.32;2.90;;;11.10;67.70;13.00;103658.00;;;;5008140;28;20296;-73
2023/12/16 09:08:48;;;;;;;9.73;3.13;;;11.20;67.80;13.10;103657.00;;;;5006984;28;20212;-73
2023/12/16 09:11:16;;;;;;;9.50;3.13;;;11.30;67.80;13.10;103657.00;;;;5008210;28;20201;-73
2023/12/16 09:13:44;;;;;;;8.95;2.50;;;11.30;67.80;13.20;103665.00;;;;5008428;28;20185;-73
2023/12/16 09:16:11;;;;;;;14.02;3.15;;;11.40;67.80;13.20;103668.00;;;;5008504;28;20201;-72
2023/12/16 09:18:39;;;;;;;5.95;2.30;;;11.50;67.90;13.30;103669.00;;;;5008568;28;20208;-73
2023/12/16 09:21:07;;;;;;;7.55;2.28;;;11.50;67.80;13.30;103672.00;;;;5007308;28;20201;-73
2023/12/16 09:23:35;;;;;;;11.18;2.53;;;11.60;67.90;13.40;103679.00;;;;5006252;28;20702;-73
2023/12/16 09:26:02;;;;;;;7.68;2.85;;;11.60;67.90;13.40;103682.00;;;;5001218;28;20240;-73
2023/12/16 09:28:29;;;;;;;12.48;2.90;;;11.60;67.90;13.50;103689.00;;;;5010415;28;20209;-74
2023/12/16 09:30:56;;;;;;;8.98;2.50;;;11.70;68.00;13.50;103696.00;;;;5022940;28;20203;-74
2023/12/16 09:33:23;;;;;;;9.57;2.72;;;11.70;68.00;13.50;103698.00;;;;5014368;28;20201;-73
2023/12/16 09:35:51;;;;;;;10.30;2.88;;;11.80;68.00;13.60;103699.00;;;;5011124;28;20208;-73
2023/12/16 09:38:18;;;;;;;9.75;3.10;;;11.80;68.00;13.60;103702.00;;;;4997937;28;20209;-73
2023/12/16 09:40:45;;;;;;;7.63;2.53;;;11.90;68.00;13.70;103697.00;;;;5019820;28;20734;-73
2023/12/16 09:43:17;;;;;;;8.23;2.85;;;11.90;68.00;13.70;103698.00;;;;5017560;28;20232;-73
2023/12/16 09:45:47;;;;;;;8.75;3.17;;;12.00;68.10;13.70;103697.00;;;;5018233;28;20536;-73
2023/12/16 09:48:17;;;;;;;7.78;3.00;;;12.00;68.00;13.80;103699.00;;;;5018220;28;20201;-73
2023/12/16 09:50:45;;;;;;;8.73;2.85;;;12.10;68.00;13.80;103700.00;;;;5012917;28;20229;-73
2023/12/16 09:53:14;;;;;;;8.32;2.70;;;12.10;68.00;13.90;103693.00;;;;5011026;28;20560;-74
2023/12/16 09:55:41;;;;;;;9.73;3.33;;;12.10;67.90;13.90;103693.00;;;;5010645;28;20224;-73
2023/12/16 09:58:13;;;;;;;10.75;3.33;;;12.20;67.90;13.90;103702.00;;;;5009813;28;20227;-73
2023/12/16 10:00:46;;;;;;;9.68;3.75;;;12.20;68.00;13.90;103705.00;;;;4991732;28;20290;-73
2023/12/16 10:03:15;;;;;;;7.68;3.30;;;12.30;68.00;14.00;103698.00;;;;5005806;28;20229;-73
2023/12/16 10:05:44;;;;;;;8.32;3.80;;;12.30;68.00;14.00;103705.00;;;;5010026;28;20279;-73
2023/12/16 10:08:12;;;;;;;8.65;3.15;;;12.40;68.20;14.10;103707.00;;;;5010277;28;20213;-73
2023/12/16 10:10:40;;;;;;;6.18;2.97;;;12.40;68.10;14.10;103702.00;;;;5025468;28;20282;-74
2023/12/16 10:13:07;;;;;;;12.32;4.28;;;12.40;68.20;14.20;103696.00;;;;5015071;28;20209;-73
2023/12/16 10:15:37;;;;;;;11.38;5.10;;;12.50;68.20;14.20;103697.00;;;;5020177;28;20202;-73
2023/12/16 10:18:04;;;;;;;9.85;5.20;;;12.50;68.30;14.30;103697.00;;;;5005661;28;20201;-74
2023/12/16 10:20:32;;;;;;;19.75;6.40;;;12.60;68.50;14.30;103695.00;;;;5009832;28;20227;-73
2023/12/16 10:23:01;;;;;;;11.93;4.65;;;12.60;68.40;14.30;103700.00;;;;5009974;28;20220;-73
2023/12/16 10:25:30;;;;;;;11.05;4.40;;;12.60;68.50;14.40;103707.00;;;;5019833;28;20761;-73
2023/12/16 10:28:02;;;;;;;10.73;4.78;;;12.70;68.50;14.40;103704.00;;;;5010351;28;20192;-73
2023/12/16 10:30:29;;;;;;;15.23;5.05;;;12.70;68.50;14.50;103694.00;;;;5010571;28;20675;-73
2023/12/16 10:32:56;;;;;;;9.60;4.57;;;12.80;68.50;14.50;103701.00;;;;5002059;28;20194;-73
2023/12/16 10:35:24;;;;;;;8.35;4.40;;;12.80;68.60;14.60;103698.00;;;;5008881;28;20205;-73
2023/12/16 10:37:52;;;;;;;9.57;4.60;;;12.90;68.60;14.60;103693.00;;;;5014591;28;20232;-73
2023/12/16 10:40:19;;;;;;;13.57;5.00;;;12.90;68.50;14.60;103691.00;;;;5012076;28;20571;-73
2023/12/16 10:42:46;;;;;;;10.30;5.32;;;13.00;68.50;14.70;103695.00;;;;5008932;28;20229;-73
2023/12/16 10:45:15;;;;;;;13.57;4.97;;;13.00;68.50;14.70;103698.00;;;;5010668;28;20536;-73
2023/12/16 10:47:43;;;;;;;12.27;5.82;;;13.10;68.50;14.70;103696.00;;;;5010181;28;20197;-73